Terminal Aerodrome Forecast
Issued by NWS

Home | Current Version | Previous Version | Text Only | Print | Product List | Glossary On
Versions: 1 2 3 4 5 6 7 8 9 10 11 12 13
000
FTUS46 KHNX 312320
TAFBFL
TAF
KBFL 312320Z 0100/0124 31012G18KT P6SM FEW130 SCT250
     FM010600 35007KT P6SM SCT130
     FM010900 VRB04KT P6SM FEW130
     FM012100 30011KT P6SM SKC=

USA.gov is the U.S. government's official web portal to all federal, state and local government web resources and services.